地図

経路データ

SID SEASON NUMBER BASIN SUBBASIN NAME ISO_TIME NATURE LAT LON WMO_WIND WMO_PRES WMO_AGENCY TRACK_TYPE DIST2LAND LANDFALL IFLAG USA_AGENCY USA_ATCF_ID USA_LAT USA_LON USA_RECORD USA_STATUS USA_WIND USA_PRES USA_SSHS USA_R34_NE USA_R34_SE USA_R34_SW USA_R34_NW USA_R50_NE USA_R50_SE USA_R50_SW USA_R50_NW USA_R64_NE USA_R64_SE USA_R64_SW USA_R64_NW USA_POCI USA_ROCI USA_RMW USA_EYE TOKYO_LAT TOKYO_LON TOKYO_GRADE TOKYO_WIND TOKYO_PRES TOKYO_R50_DIR TOKYO_R50_LONG TOKYO_R50_SHORT TOKYO_R30_DIR TOKYO_R30_LONG TOKYO_R30_SHORT TOKYO_LAND CMA_LAT CMA_LON CMA_CAT CMA_WIND CMA_PRES HKO_LAT HKO_LON HKO_CAT HKO_WIND HKO_PRES NEWDELHI_LAT NEWDELHI_LON NEWDELHI_GRADE NEWDELHI_WIND NEWDELHI_PRES NEWDELHI_CI NEWDELHI_DP NEWDELHI_POCI REUNION_LAT REUNION_LON REUNION_TYPE REUNION_WIND REUNION_PRES REUNION_TNUM REUNION_CI REUNION_RMW REUNION_R34_NE REUNION_R34_SE REUNION_R34_SW REUNION_R34_NW REUNION_R50_NE REUNION_R50_SE REUNION_R50_SW REUNION_R50_NW REUNION_R64_NE REUNION_R64_SE REUNION_R64_SW REUNION_R64_NW BOM_LAT BOM_LON BOM_TYPE BOM_WIND BOM_PRES BOM_TNUM BOM_CI BOM_RMW BOM_R34_NE BOM_R34_SE BOM_R34_SW BOM_R34_NW BOM_R50_NE BOM_R50_SE BOM_R50_SW BOM_R50_NW BOM_R64_NE BOM_R64_SE BOM_R64_SW BOM_R64_NW BOM_ROCI BOM_POCI BOM_EYE BOM_POS_METHOD BOM_PRES_METHOD NADI_LAT NADI_LON NADI_CAT NADI_WIND NADI_PRES WELLINGTON_LAT WELLINGTON_LON WELLINGTON_WIND WELLINGTON_PRES DS824_LAT DS824_LON DS824_STAGE DS824_WIND DS824_PRES TD9636_LAT TD9636_LON TD9636_STAGE TD9636_WIND TD9636_PRES TD9635_LAT TD9635_LON TD9635_WIND TD9635_PRES TD9635_ROCI NEUMANN_LAT NEUMANN_LON NEUMANN_CLASS NEUMANN_WIND NEUMANN_PRES MLC_LAT MLC_LON MLC_CLASS MLC_WIND MLC_PRES USA_GUST BOM_GUST BOM_GUST_PER REUNION_GUST REUNION_GUST_PER USA_SEAHGT USA_SEARAD_NE USA_SEARAD_SE USA_SEARAD_SW USA_SEARAD_NW STORM_SPEED STORM_DIR
1987110S07073 1987 27 SI MM NOT_NAMED 1987-04-20 00:00:00 TS -7.30000 73.2000 main 1686 1686 O_________O_O_ jtwc_sh SH261987 -7.30000 73.2000 20 -1 -7.30000 73.2000 1 20 -7.30000 73.2000 TC 20 14 240
1987110S07073 1987 27 SI MM NOT_NAMED 1987-04-20 03:00:00 TS -7.64723 72.5828 main 1747 1747 P_________P_P_ SH261987 -7.62273 72.5651 22 -1 -7.69623 72.6183 1 21 -7.62273 72.5651 TC 22 14 238
1987110S07073 1987 27 SI MM NOT_NAMED 1987-04-20 06:00:00 TS -8.03453 72.0263 main 1819 1819 O_________P_O_ jtwc_sh SH261987 -8.00000 72.0000 25 -1 -8.10360 72.0788 1 22 -8.00000 72.0000 TC 25 13 229
1987110S07073 1987 27 SI MM NOT_NAMED 1987-04-20 09:00:00 TS -8.49132 71.5866 main 1890 1890 P_________P_P_ SH261987 -8.46993 71.5676 25 -1 -8.53410 71.6248 1 23 -8.46993 71.5676 TC 25 12 217
1987110S07073 1987 27 SI MM NOT_NAMED 1987-04-20 12:00:00 TS -9.00000 71.3000 main 1918 1872 O_________O_O_ jtwc_sh SH261987 -9.00000 71.3000 25 -1 -9.00000 71.3000 1 25 -9.00000 71.3000 TC 25 11 201
1987110S07073 1987 27 SI MM NOT_NAMED 1987-04-20 15:00:00 TS -9.54044 71.1758 main 1872 1836 P_________P_P_ SH261987 -9.55744 71.1973 25 -1 -9.50644 71.1329 1 25 -9.55744 71.1973 TC 25 11 187
1987110S07073 1987 27 SI MM NOT_NAMED 1987-04-20 18:00:00 TS -10.0765 71.1639 main 1829 1801 O_________P_O_ jtwc_sh SH261987 -10.1000 71.2000 25 -1 -10.0295 71.0917 1 25 -10.1000 71.2000 TC 25 10 0
1987110S07073 1987 27 SI MM NOT_NAMED 1987-04-20 21:00:00 TS -10.5609 71.1666 main 1794 1767 P_________P_P_ SH261987 -10.5725 71.1850 25 -1 -10.5379 71.1298 1 25 -10.5725 71.1850 TC 25 9 177
1987110S07073 1987 27 SI MM NOT_NAMED 1987-04-21 00:00:00 TS -11.0000 71.2000 main 1767 1741 O_________O_O_ jtwc_sh SH261987 -11.0000 71.2000 25 -1 -11.0000 71.2000 1 25 -11.0000 71.2000 TC 25 9 175
1987110S07073 1987 27 SI MM NOT_NAMED 1987-04-21 03:00:00 TS -11.4212 71.2377 main 1741 1724 P_________P_P_ SH261987 -11.4300 71.2425 25 -1 -11.4037 71.2283 1 25 -11.4300 71.2425 TC 25 8 173
1987110S07073 1987 27 SI MM NOT_NAMED 1987-04-21 06:00:00 TS -11.7850 71.2924 main 1724 1705 O_________P_O_ jtwc_sh SH261987 -11.8000 71.3000 25 -1 -11.7549 71.2773 1 25 -11.8000 71.3000 TC 25 7 171
1987110S07073 1987 27 SI MM NOT_NAMED 1987-04-21 09:00:00 TS -12.0762 71.3459 main 1705 1702 P_________P_P_ SH261987 -12.0875 71.3500 25 -1 -12.0537 71.3377 1 25 -12.0875 71.3500 TC 25 5 169
1987110S07073 1987 27 SI MM NOT_NAMED 1987-04-21 12:00:00 TS -12.3000 71.4000 main 1702 1690 O_________O_O_ jtwc_sh SH261987 -12.3000 71.4000 25 -1 -12.3000 71.4000 1 25 -12.3000 71.4000 TC 25 4 166
1987110S07073 1987 27 SI MM NOT_NAMED 1987-04-21 15:00:00 TS -12.4781 71.4500 main 1699 1693 P_________P_P_ SH261987 -12.4650 71.4500 25 -1 -12.5044 71.4501 1 25 -12.4650 71.4500 TC 25 3 164
1987110S07073 1987 27 SI MM NOT_NAMED 1987-04-21 18:00:00 TS -12.6200 71.5000 main 1693 1682 O_________P_O_ jtwc_sh SH261987 -12.6000 71.5000 25 -1 -12.6600 71.5001 1 25 -12.6000 71.5000 TC 25 3 162
1987110S07073 1987 27 SI MM NOT_NAMED 1987-04-21 21:00:00 TS -12.7619 71.5500 main 1691 1685 P_________P_P_ SH261987 -12.7500 71.5500 25 -1 -12.7856 71.5500 1 25 -12.7500 71.5500 TC 25 3 161
1987110S07073 1987 27 SI MM NOT_NAMED 1987-04-22 00:00:00 TS -12.9000 71.6000 main 1685 1680 O_________O_O_ jtwc_sh SH261987 -12.9000 71.6000 25 -1 -12.9000 71.6000 1 25 -12.9000 71.6000 TC 25 3 161
1987110S07073 1987 27 SI MM NOT_NAMED 1987-04-22 03:00:00 TS -13.0491 71.6487 main 1680 1678 P_________P_P_ SH261987 -13.0575 71.6500 25 -1 -13.0322 71.6460 1 25 -13.0575 71.6500 TC 25 3 162
1987110S07073 1987 27 SI MM NOT_NAMED 1987-04-22 06:00:00 TS -13.1858 71.6975 main 1678 1673 O_________P_O_ jtwc_sh SH261987 -13.2000 71.7000 25 -1 -13.1575 71.6926 1 25 -13.2000 71.7000 TC 25 3 160
1987110S07073 1987 27 SI MM NOT_NAMED 1987-04-22 09:00:00 TS -13.2930 71.7426 main 1673 1673 P_________P_P_ SH261987 -13.3000 71.7425 25 -1 -13.2790 71.7429 1 25 -13.3000 71.7425 TC 25 2 156
1987110S07073 1987 27 SI MM NOT_NAMED 1987-04-22 12:00:00 TS -13.4000 71.8000 main 1677 1671 O_________O_O_ jtwc_sh SH261987 -13.4000 71.8000 25 -1 -13.4000 71.8000 1 25 -13.4000 71.8000 TC 25 3 150
1987110S07073 1987 27 SI MM NOT_NAMED 1987-04-22 15:00:00 TS -13.5430 71.8865 main 1681 1675 P_________P_P_ SH261987 -13.5500 71.9000 25 -1 -13.5290 71.8597 1 25 -13.5500 71.9000 TC 25 3 149
1987110S07073 1987 27 SI MM NOT_NAMED 1987-04-22 18:00:00 TS -13.6858 71.9758 main 1679 1674 O_________P_O_ jtwc_sh SH261987 -13.7000 72.0000 25 -1 -13.6575 71.9275 1 25 -13.7000 72.0000 TC 25 3 151
1987110S07073 1987 27 SI MM NOT_NAMED 1987-04-22 21:00:00 TS -13.7990 72.0355 main 1674 1674 P_________P_P_ SH261987 -13.8075 72.0500 25 -1 -13.7822 72.0066 1 25 -13.8075 72.0500 TC 25 2 151
1987110S07073 1987 27 SI MM NOT_NAMED 1987-04-23 00:00:00 TS -13.9000 72.1000 main 1679 1674 O_________O_O_ jtwc_sh SH261987 -13.9000 72.1000 25 -1 -13.9000 72.1000 1 25 -13.9000 72.1000 TC 25 3 143
1987110S07073 1987 27 SI MM NOT_NAMED 1987-04-23 03:00:00 TS -14.0024 72.1908 main 1683 1678 P_________P_P_ SH261987 -14.0000 72.1850 25 -1 -14.0072 72.2025 1 25 -14.0000 72.1850 TC 25 3 135
1987110S07073 1987 27 SI MM NOT_NAMED 1987-04-23 06:00:00 TS -14.1025 72.3067 main 1688 1688 O_________P_O_ jtwc_sh SH261987 -14.1000 72.3000 25 -1 -14.1075 72.3201 1 25 -14.1000 72.3000 TC 25 3 128
1987110S07073 1987 27 SI MM NOT_NAMED 1987-04-23 09:00:00 TS -14.1963 72.4459 main 1693 1693 P_________P_P_ SH261987 -14.1925 72.4425 25 -1 -14.2040 72.4526 1 25 -14.1925 72.4425 TC 25 3 125
1987110S07073 1987 27 SI MM NOT_NAMED 1987-04-23 12:00:00 TS -14.3000 72.6000 main 1707 1707 O_________O_O_ jtwc_sh SH261987 -14.3000 72.6000 25 -1 -14.3000 72.6000 1 25 -14.3000 72.6000 TC 25 4 130
1987110S07073 1987 27 SI MM NOT_NAMED 1987-04-23 15:00:00 TS -14.4397 72.7458 main 1712 1712 P_________P_P_ SH261987 -14.4575 72.7425 25 -1 -14.4040 72.7525 1 26 -14.4575 72.7425 TC 25 4 132
1987110S07073 1987 27 SI MM NOT_NAMED 1987-04-23 18:00:00 TS -14.5691 72.9067 main 1723 1723 O_________P_O_ jtwc_sh SH261987 -14.6000 72.9000 25 -1 -14.5074 72.9200 1 27 -14.6000 72.9000 TC 25 4 121
1987110S07073 1987 27 SI MM NOT_NAMED 1987-04-23 21:00:00 TS -14.6407 73.0959 main 1742 1738 P_________P_P_ SH261987 -14.6575 73.0926 27 -1 -14.6071 73.1025 1 28 -14.6575 73.0926 TC 27 4 109
1987110S07073 1987 27 SI MM NOT_NAMED 1987-04-24 00:00:00 TS -14.7000 73.3000 main 1758 1758 O_________O_O_ jtwc_sh SH261987 -14.7000 73.3000 30 -1 -14.7000 73.3000 1 30 -14.7000 73.3000 TC 30 4 113
1987110S07073 1987 27 SI MM NOT_NAMED 1987-04-24 03:00:00 TS -14.8035 73.5012 main 1773 1773 P_________P_P_ SH261987 -14.8000 73.4925 32 -1 -14.8107 73.5186 1 32 -14.8000 73.4925 TC 32 5 117
1987110S07073 1987 27 SI MM NOT_NAMED 1987-04-24 06:00:00 TS -14.9034 73.7166 main 1789 1789 O_________P_O_ jtwc_sh SH261987 -14.9000 73.7000 35 0 -14.9101 73.7498 1 35 -14.9000 73.7000 TC 35 5 111
1987110S07073 1987 27 SI MM NOT_NAMED 1987-04-24 09:00:00 TS -14.9748 73.9553 main 1815 1815 P_________P_P_ SH261987 -14.9725 73.9425 37 0 -14.9794 73.9811 1 37 -14.9725 73.9425 TC 37 5 102
1987110S07073 1987 27 SI MM NOT_NAMED 1987-04-24 12:00:00 TS -15.0000 74.2000 main 1835 1835 O_________O_O_ jtwc_sh SH261987 -15.0000 74.2000 40 0 -15.0000 74.2000 2 40 -15.0000 74.2000 TC 40 5 90
1987110S07073 1987 27 SI MM NOT_NAMED 1987-04-24 15:00:00 TS -14.9742 74.4557 main 1865 1865 P_________P_P_ SH261987 -14.9800 74.4725 40 0 -14.9625 74.4221 2 40 -14.9800 74.4725 TC 40 5 77
1987110S07073 1987 27 SI MM NOT_NAMED 1987-04-24 18:00:00 TS -14.8917 74.6751 main 1889 1889 O_________P_O_ jtwc_sh SH261987 -14.9000 74.7000 40 0 -14.8750 74.6254 2 40 -14.9000 74.7000 TC 40 4 59
1987110S07073 1987 27 SI MM NOT_NAMED 1987-04-24 21:00:00 TS -14.7600 74.8220 main 1903 1903 P_________P_P_ SH261987 -14.7650 74.8375 40 0 -14.7500 74.7909 2 40 -14.7650 74.8375 TC 40 4 36
1987110S07073 1987 27 SI MM NOT_NAMED 1987-04-25 00:00:00 TS -14.6000 74.9000 main 1921 1921 O_________O_O_ jtwc_sh SH261987 -14.6000 74.9000 40 0 -14.6000 74.9000 2 40 -14.6000 74.9000 TC 40 3 18
1987110S07073 1987 27 SI MM NOT_NAMED 1987-04-25 03:00:00 TS -14.4525 74.9299 main 1925 1925 P_________P_P_ SH261987 -14.4575 74.9225 42 0 -14.4424 74.9446 2 41 -14.4575 74.9225 TC 42 3 0
1987110S07073 1987 27 SI MM NOT_NAMED 1987-04-25 06:00:00 TS -14.2883 74.9108 main 1934 1934 O_________P_O_ jtwc_sh SH261987 -14.3000 74.9000 45 0 -14.2649 74.9324 2 42 -14.3000 74.9000 TC 45 4 350
1987110S07073 1987 27 SI MM NOT_NAMED 1987-04-25 09:00:00 TS -14.0933 74.8647 main 1943 1937 P_________P_P_ SH261987 -14.1000 74.8575 45 0 -14.0799 74.8790 2 43 -14.1000 74.8575 TC 45 4 345
1987110S07073 1987 27 SI MM NOT_NAMED 1987-04-25 12:00:00 TS -13.9000 74.8000 main 1942 1942 O_________O_O_ jtwc_sh SH261987 -13.9000 74.8000 45 0 -13.9000 74.8000 2 45 -13.9000 74.8000 TC 45 4 342
1987110S07073 1987 27 SI MM NOT_NAMED 1987-04-25 15:00:00 TS -13.7399 74.7519 main 1951 1941 P_________P_P_ SH261987 -13.7425 74.7650 45 0 -13.7347 74.7256 2 42 -13.7425 74.7650 TC 45 3 339
1987110S07073 1987 27 SI MM NOT_NAMED 1987-04-25 18:00:00 TS -13.5925 74.6767 main 1946 1941 O_________P_O_ jtwc_sh SH261987 -13.6000 74.7000 45 0 -13.5775 74.6300 2 40 -13.6000 74.7000 TC 45 4 326
1987110S07073 1987 27 SI MM NOT_NAMED 1987-04-25 21:00:00 TS -13.4389 74.5448 main 1936 1931 P_________P_P_ SH261987 -13.4425 74.5575 40 0 -13.4316 74.5193 2 37 -13.4425 74.5575 TC 40 4 317
1987110S07073 1987 27 SI MM NOT_NAMED 1987-04-26 00:00:00 TS -13.3000 74.4000 main 1931 1926 O_________O_O_ jtwc_sh SH261987 -13.3000 74.4000 35 0 -13.3000 74.4000 2 35 -13.3000 74.4000 TC 35 4 315
1987110S07073 1987 27 SI MM NOT_NAMED 1987-04-26 03:00:00 TS -13.1899 74.2924 main 1926 1922 P_________P_P_ SH261987 -13.1925 74.3000 32 -1 -13.1847 74.2772 2 32 -13.1925 74.3000 TC 32 3 315
1987110S07073 1987 27 SI MM NOT_NAMED 1987-04-26 06:00:00 TS -13.0942 74.1842 main 1922 1912 O_________P_O_ jtwc_sh SH261987 -13.1000 74.2000 30 -1 -13.0825 74.1525 2 30 -13.1000 74.2000 TC 30 3 309
1987110S07073 1987 27 SI MM NOT_NAMED 1987-04-26 09:00:00 TS -12.9981 74.0505 main 1917 1903 P_________P_P_ SH261987 -13.0025 74.0625 27 -1 -12.9891 74.0265 2 27 -13.0025 74.0625 TC 27 3 305
1987110S07073 1987 27 SI MM NOT_NAMED 1987-04-26 12:00:00 TS -12.9000 73.9000 main 1903 O_________O_O_ jtwc_sh SH261987 -12.9000 73.9000 25 -1 -12.9000 73.9000 1 25 -12.9000 73.9000 TC 25 4 304

IBTrACS Databaseについて

本データベースは、米国NOAAが公開する1842年以降の世界の熱帯低気圧のベストトラックデータアーカイブInternational Best Track Archive for Climate Stewardship (IBTrACS)を、ウェブで閲覧しやすい形式に変換したものです。

最終更新日:2021-10-25